46U

Alpine Airport

Alpine, Wyoming, USA
METAR K46U 160535Z AUTO 11015KT 10SM SCT036 BKN042 OVC055 M07/M11 A3005 RMK A01
Observed Flight Rules
Jan-16 @ 05:35 UTC (22 minutes ago) Visual Flight Rules
Wind Visibility Clouds
110° at 15 knots 10 miles
  • Scattered at 3,600' AGL
  • Broken at 4,200' AGL
  • Overcast at 5,500' AGL
Temperatures Readings
Current -7°C / 19°F
Dewpoint -11°C / 12°F
Humidity 73%
Altimeter 30.05" Hg
Pressure 1017.62 hPa
Elevation 1717
METAR K46U 160535Z AUTO 11015KT 10SM SCT036 BKN042 OVC055 M07/M11 A3005 RMK A01
Observed Flight Rules
Jan-16 @ 05:35 UTC
(22 minutes ago)
VFR
Wind Visibility
110° at 15 knots 10 miles
Clouds
  • Scattered at 3,600' AGL
  • Broken at 4,200' AGL
  • Overcast at 5,500' AGL
Temperature Dewpoint
-7°C / 19°F -11°C / 12°F
Humidity Altimeter Pressure
73% 30.05" Hg 1017.62 hPa